メインページ
METAR-TAF:

METAR-TAF

空港 :

フランクリン郡, バーモント州, アメリカ合衆国

緯度: 44-56-25N, 経度: 073-05-51W, 海抜: 69m

現時点の気象観測

当レポートは25分前の09:55(UTC)に作成
西の風 6kt、南西から北西の間で変化する
気温 -10°C
湿度 72%
気圧 1014 hPa
視程: 16.1km
高度2800ftの曇り

METAR: KFSO 230955Z AUTO 27006KT 230V310 10SM OVC028 M10/M14 A2993 RMK AO2 T11001140

時間: 05:20 (10:20 UTC)


TAF: 見つかりません

4,000以上の空港の気象観測と天気予報(METAR報とTAF報)

利用可能な観測所は地図上に黄色い丸と赤い丸で示す。

丸の上にカーソルを重ねると観測所名を参照できる。

次にクリックすると気象観測と天気予報を参照できる。

マップの切り替え:黒色「×」印の緑ボタンをクリックして拡大、「-」印の緑ボタンをクリックして縮小、緑色の三角印をクリックして隣りの地図に切り替え


METAR-TAF: